Winston, Kentucky
Current Conditions -  °F | °C
As of 7:55 PM on Tuesday 21 Oct 2014 (Local Time) from KI39 Reporting Station
Overcast Overcast  
Wind Chill: 52°   Ceiling: 6000
Heat Index: 52°   Visibility: 10mi
Dew Point: 39°   Wind: 3mph
Humidity: 62%   Direction: 20°NNE
Pressure: 30.1"   Gusts: NA
Location:  37.71°N, 84.08°W
Report Text: KI39 212355Z AUTO 02003KT 10SM OVC060 11/04 A3010 RMK AO2
Loading
Personal Weather Stations






























Interactive Weather Map
Tropical Storm Tracking
New forecast layout! Learn more

10-Day Weather Forecast

Advertisements
Track Severe Weather on mobile